createdAt,value
2017-08-08T00:02:27.920Z,74.74
2017-08-08T00:04:56.288Z,75.07
2017-08-08T00:07:24.619Z,75.00
2017-08-08T00:09:52.956Z,75.24
2017-08-08T00:12:21.283Z,75.44
2017-08-08T00:14:49.944Z,75.07
2017-08-08T00:17:18.268Z,74.59
2017-08-08T00:19:47.217Z,75.49
2017-08-08T00:22:16.324Z,75.19
2017-08-08T00:24:44.648Z,75.29
2017-08-08T00:27:13.005Z,74.89
2017-08-08T00:29:41.327Z,75.08
2017-08-08T00:32:09.672Z,75.24
2017-08-08T00:34:38.027Z,75.05
2017-08-08T00:37:06.369Z,75.01
2017-08-08T00:39:34.717Z,75.49
2017-08-08T00:42:03.039Z,75.93
2017-08-08T00:44:31.386Z,76.10
2017-08-08T00:46:59.714Z,75.88
2017-08-08T00:49:28.069Z,76.32
2017-08-08T00:51:57.193Z,76.45
2017-08-08T00:54:25.515Z,76.44
2017-08-08T00:56:53.876Z,76.17
2017-08-08T00:59:22.204Z,75.86
2017-08-08T01:01:51.340Z,75.53
2017-08-08T01:04:19.669Z,76.06
2017-08-08T01:06:48.030Z,75.87
2017-08-08T01:09:16.386Z,75.85
2017-08-08T01:11:44.731Z,76.39
2017-08-08T01:14:13.879Z,76.58
2017-08-08T01:16:42.960Z,76.03
2017-08-08T01:19:11.305Z,76.01
2017-08-08T01:21:39.646Z,75.84
2017-08-08T01:24:08.026Z,75.85
2017-08-08T01:26:36.460Z,76.13
2017-08-08T01:29:04.790Z,76.29
2017-08-08T01:31:33.141Z,76.64
2017-08-08T01:34:01.463Z,76.08
2017-08-08T01:36:29.825Z,75.70
2017-08-08T01:38:58.162Z,76.16
2017-08-08T01:41:26.513Z,75.95
2017-08-08T01:43:56.768Z,76.29
2017-08-08T01:46:25.093Z,76.16
2017-08-08T01:48:53.429Z,76.38
2017-08-08T01:51:21.762Z,76.39
2017-08-08T01:53:50.369Z,76.63
2017-08-08T01:56:18.695Z,76.28
2017-08-08T01:58:47.007Z,76.81
2017-08-08T02:01:21.348Z,76.83
2017-08-08T02:03:49.725Z,76.29
2017-08-08T02:06:18.185Z,76.32
2017-08-08T02:08:46.536Z,76.93
2017-08-08T02:11:14.892Z,76.47
2017-08-08T02:13:43.213Z,76.44
2017-08-08T02:16:11.550Z,76.48
2017-08-08T02:18:39.911Z,76.15
2017-08-08T02:21:08.450Z,76.35
2017-08-08T02:23:36.787Z,76.27
2017-08-08T02:26:05.107Z,76.34
2017-08-08T02:28:33.422Z,76.92
2017-08-08T02:31:01.755Z,76.77
2017-08-08T02:33:30.108Z,76.76
2017-08-08T02:35:58.882Z,77.39
2017-08-08T02:38:27.222Z,77.02
2017-08-08T02:40:55.569Z,76.46
2017-08-08T02:43:24.346Z,75.98
2017-08-08T02:45:52.674Z,76.43
2017-08-08T02:48:21.007Z,77.43
2017-08-08T02:50:49.315Z,77.08
2017-08-08T02:53:17.668Z,76.84
2017-08-08T02:55:45.996Z,77.25
2017-08-08T02:58:14.357Z,76.42
2017-08-08T03:00:42.705Z,77.44
2017-08-08T03:03:11.023Z,77.11
2017-08-08T03:05:39.741Z,76.98
2017-08-08T03:08:08.120Z,76.73
2017-08-08T03:10:37.219Z,76.75
2017-08-08T03:13:05.551Z,77.98
2017-08-08T03:15:33.891Z,78.55
2017-08-08T03:18:02.236Z,78.90
2017-08-08T03:20:30.645Z,78.50
2017-08-08T03:22:58.985Z,78.63
2017-08-08T03:25:27.684Z,78.46
2017-08-08T03:27:56.037Z,77.99
2017-08-08T03:30:24.364Z,78.01
2017-08-08T03:32:53.149Z,77.93
2017-08-08T03:35:22.283Z,78.09
2017-08-08T03:37:50.609Z,78.34
2017-08-08T03:40:18.960Z,78.03
2017-08-08T03:42:47.283Z,78.40
2017-08-08T03:45:16.482Z,78.38
2017-08-08T03:47:44.843Z,79.32
2017-08-08T03:50:13.188Z,79.68
2017-08-08T03:52:41.536Z,80.30
2017-08-08T03:55:09.866Z,79.60
2017-08-08T03:57:38.209Z,79.09
2017-08-08T04:00:06.545Z,79.70
2017-08-08T04:02:35.665Z,79.48
2017-08-08T04:05:04.578Z,79.54
2017-08-08T04:07:32.930Z,79.22
2017-08-08T04:10:01.352Z,79.03
2017-08-08T04:12:29.693Z,79.66
2017-08-08T04:14:58.043Z,79.33
2017-08-08T04:17:26.397Z,79.37
2017-08-08T04:19:54.719Z,79.71
2017-08-08T04:22:23.066Z,79.64
2017-08-08T04:24:51.393Z,79.41
2017-08-08T04:27:19.741Z,79.29
2017-08-08T04:29:48.056Z,79.37
2017-08-08T04:32:18.181Z,79.57
2017-08-08T04:34:46.503Z,80.01
2017-08-08T04:37:14.830Z,80.53
2017-08-08T04:39:43.320Z,80.11
2017-08-08T04:42:11.636Z,79.67
2017-08-08T04:44:40.506Z,79.45
2017-08-08T04:47:08.815Z,79.89
2017-08-08T04:49:37.958Z,80.07
2017-08-08T04:52:06.283Z,79.96
2017-08-08T04:54:34.608Z,80.75
2017-08-08T04:57:03.725Z,80.92
2017-08-08T04:59:32.053Z,81.27
2017-08-08T05:02:00.397Z,81.42
2017-08-08T05:04:28.722Z,81.73
2017-08-08T05:06:57.442Z,81.59
2017-08-08T05:09:25.751Z,81.33
2017-08-08T05:11:54.091Z,81.57
2017-08-08T05:14:23.089Z,81.61
2017-08-08T05:16:51.399Z,81.71
2017-08-08T05:19:19.733Z,81.92
2017-08-08T05:21:48.065Z,82.00
2017-08-08T05:24:16.682Z,81.98
2017-08-08T05:26:45.024Z,81.33
2017-08-08T05:29:13.346Z,80.82
2017-08-08T05:31:41.710Z,80.95
2017-08-08T05:34:10.777Z,81.32
2017-08-08T05:36:39.147Z,81.13
2017-08-08T05:39:07.491Z,81.36
2017-08-08T05:41:35.812Z,80.60
2017-08-08T05:44:04.139Z,80.68
2017-08-08T05:46:32.467Z,80.54
2017-08-08T05:49:00.819Z,80.32
2017-08-08T05:51:29.164Z,80.20
2017-08-08T05:53:57.531Z,79.75
2017-08-08T05:56:25.884Z,80.44
2017-08-08T05:58:54.225Z,80.03
2017-08-08T06:01:22.582Z,78.99
2017-08-08T06:03:50.919Z,77.71
2017-08-08T06:06:19.263Z,77.64
2017-08-08T06:08:47.585Z,77.46
2017-08-08T06:11:15.950Z,77.58
2017-08-08T06:13:44.302Z,78.20
2017-08-08T06:16:13.394Z,78.81
2017-08-08T06:18:41.757Z,79.00
2017-08-08T06:21:10.100Z,78.23
2017-08-08T06:23:38.454Z,78.35
2017-08-08T06:26:06.793Z,77.89
2017-08-08T06:28:35.519Z,77.05
2017-08-08T06:31:03.857Z,76.70
2017-08-08T06:33:32.197Z,76.94
2017-08-08T06:36:00.555Z,77.11
2017-08-08T06:38:28.895Z,77.01
2017-08-08T06:40:57.250Z,77.22
2017-08-08T06:43:25.581Z,77.97
2017-08-08T06:45:54.274Z,78.54
2017-08-08T06:48:22.618Z,79.12
2017-08-08T06:50:50.952Z,79.46
2017-08-08T06:53:19.297Z,79.42
2017-08-08T06:55:48.421Z,79.18
2017-08-08T06:58:16.755Z,78.04
2017-08-08T07:00:45.078Z,78.37
2017-08-08T07:03:13.473Z,78.42
2017-08-08T07:05:41.810Z,78.57
2017-08-08T07:08:10.912Z,79.95
2017-08-08T07:10:39.270Z,79.81
2017-08-08T07:13:07.612Z,81.66
2017-08-08T07:15:35.970Z,82.50
2017-08-08T07:18:04.306Z,82.47
2017-08-08T07:20:32.656Z,82.62
2017-08-08T07:23:00.993Z,83.36
2017-08-08T07:25:29.332Z,84.24
2017-08-08T07:27:57.677Z,84.09
2017-08-08T07:30:26.043Z,84.24
2017-08-08T07:32:54.387Z,83.90
2017-08-08T07:35:22.732Z,84.89
2017-08-08T07:37:51.086Z,85.84
2017-08-08T07:40:19.511Z,84.86
2017-08-08T07:42:47.864Z,84.52
2017-08-08T07:45:16.212Z,85.56
2017-08-08T07:47:45.295Z,86.33
2017-08-08T07:50:13.642Z,86.60
2017-08-08T07:52:41.972Z,84.41
2017-08-08T07:55:10.357Z,83.09
2017-08-08T07:57:38.697Z,82.83
2017-08-08T08:00:07.028Z,84.23
2017-08-08T08:02:35.401Z,85.06
2017-08-08T08:05:03.733Z,84.69
2017-08-08T08:07:32.329Z,85.61
2017-08-08T08:10:00.651Z,86.50
2017-08-08T08:12:28.989Z,86.28
2017-08-08T08:14:58.114Z,86.33
2017-08-08T08:17:26.439Z,87.21
2017-08-08T08:19:54.785Z,86.75
2017-08-08T08:22:23.091Z,87.06
2017-08-08T08:24:51.919Z,86.90
2017-08-08T08:27:20.266Z,88.29
2017-08-08T08:29:48.600Z,88.64
2017-08-08T08:32:16.964Z,88.30
2017-08-08T08:34:46.056Z,88.59
2017-08-08T08:37:17.380Z,89.27
2017-08-08T08:39:45.720Z,89.92
2017-08-08T08:42:14.070Z,89.38
2017-08-08T08:44:42.432Z,88.31
2017-08-08T08:47:11.148Z,87.99
2017-08-08T08:49:39.511Z,87.73
2017-08-08T08:52:07.848Z,87.76
2017-08-08T08:54:36.189Z,88.12
2017-08-08T08:57:04.516Z,87.62
2017-08-08T08:59:33.255Z,87.75
2017-08-08T09:02:01.589Z,87.62
2017-08-08T09:04:29.928Z,87.15
2017-08-08T09:06:58.285Z,88.72
2017-08-08T09:09:27.368Z,88.27
2017-08-08T09:11:55.723Z,88.29
2017-08-08T09:14:24.046Z,88.06
2017-08-08T09:16:52.393Z,88.34
2017-08-08T09:19:20.808Z,87.49
2017-08-08T09:21:49.146Z,87.07
2017-08-08T09:24:17.489Z,86.98
2017-08-08T09:26:45.825Z,87.37
2017-08-08T09:29:14.183Z,87.42
2017-08-08T09:31:42.528Z,87.43
2017-08-08T09:34:10.886Z,88.32
2017-08-08T09:36:39.244Z,87.47
2017-08-08T09:39:07.615Z,86.71
2017-08-08T09:41:35.964Z,87.46
2017-08-08T09:44:04.290Z,88.24
2017-08-08T09:46:33.413Z,88.91
2017-08-08T09:49:01.739Z,88.52
2017-08-08T09:51:30.086Z,87.24
2017-08-08T09:53:58.497Z,87.01
2017-08-08T09:56:26.861Z,86.82
2017-08-08T09:58:55.221Z,88.37
2017-08-08T10:01:23.558Z,88.57
2017-08-08T10:03:52.672Z,88.67
2017-08-08T10:06:21.000Z,88.43
2017-08-08T10:08:49.350Z,87.84
2017-08-08T10:11:17.698Z,87.76
2017-08-08T10:13:46.810Z,88.07
2017-08-08T10:16:15.164Z,87.75
2017-08-08T10:18:43.484Z,86.95
2017-08-08T10:21:11.827Z,87.78
2017-08-08T10:23:40.941Z,87.10
2017-08-08T10:26:09.634Z,86.94
2017-08-08T10:28:37.985Z,86.63
2017-08-08T10:31:06.368Z,86.97
2017-08-08T10:33:34.750Z,86.74
2017-08-08T10:36:03.089Z,87.17
2017-08-08T10:38:31.443Z,87.27
2017-08-08T10:40:59.802Z,86.92
2017-08-08T10:43:28.171Z,86.95
2017-08-08T10:45:57.575Z,86.43
2017-08-08T10:48:25.951Z,87.21
2017-08-08T10:50:54.296Z,87.44
2017-08-08T10:53:22.659Z,87.15
2017-08-08T10:55:51.000Z,87.83
2017-08-08T10:58:20.117Z,87.45
2017-08-08T11:00:48.452Z,87.41
2017-08-08T11:03:16.818Z,87.06
2017-08-08T11:05:45.161Z,86.51
2017-08-08T11:08:13.502Z,88.02
2017-08-08T11:10:42.625Z,87.60
2017-08-08T11:13:10.974Z,86.96
2017-08-08T11:15:39.324Z,87.63
2017-08-08T11:18:07.651Z,87.42
2017-08-08T11:20:36.036Z,87.33
2017-08-08T11:23:04.398Z,88.26
2017-08-08T11:25:33.509Z,87.45
2017-08-08T11:28:01.853Z,86.94
2017-08-08T11:30:30.201Z,86.92
2017-08-08T11:32:58.543Z,87.69
2017-08-08T11:35:27.621Z,87.03
2017-08-08T11:37:55.965Z,87.68
2017-08-08T11:40:24.309Z,87.12
2017-08-08T11:42:52.638Z,87.00
2017-08-08T11:45:21.008Z,86.63
2017-08-08T11:47:49.349Z,86.94
2017-08-08T11:50:17.685Z,87.29
2017-08-08T11:52:46.009Z,87.34
2017-08-08T11:55:14.355Z,87.53
2017-08-08T11:57:42.698Z,86.51
2017-08-08T12:00:11.037Z,86.32
2017-08-08T12:02:39.391Z,85.83
2017-08-08T12:05:07.721Z,85.46
2017-08-08T12:07:36.069Z,86.46
2017-08-08T12:10:04.415Z,87.10
2017-08-08T12:12:33.033Z,85.38
2017-08-08T12:15:01.408Z,84.37
2017-08-08T12:17:29.741Z,86.51
2017-08-08T12:19:58.127Z,86.34
2017-08-08T12:22:26.467Z,86.66
2017-08-08T12:24:54.817Z,86.95
2017-08-08T12:27:23.930Z,86.15
2017-08-08T12:29:52.288Z,85.79
2017-08-08T12:32:20.629Z,85.62
2017-08-08T12:34:48.948Z,86.84
2017-08-08T12:37:17.292Z,85.09
2017-08-08T12:39:45.637Z,84.54
2017-08-08T12:42:14.596Z,86.36
2017-08-08T12:44:42.923Z,85.22
2017-08-08T12:47:11.272Z,85.17
2017-08-08T12:49:39.633Z,85.37
2017-08-08T12:52:07.974Z,85.89
2017-08-08T12:54:36.344Z,85.23
2017-08-08T12:57:04.666Z,85.95
2017-08-08T12:59:33.027Z,85.48
2017-08-08T13:02:01.454Z,85.51
2017-08-08T13:04:30.567Z,84.73
2017-08-08T13:06:58.986Z,83.95
2017-08-08T13:09:27.302Z,82.99
2017-08-08T13:11:55.638Z,83.78
2017-08-08T13:14:23.965Z,82.13
2017-08-08T13:16:53.153Z,83.65
2017-08-08T13:19:21.487Z,82.42
2017-08-08T13:21:49.837Z,82.39
2017-08-08T13:24:18.161Z,80.92
2017-08-08T13:26:46.519Z,82.77
2017-08-08T13:29:14.873Z,80.98
2017-08-08T13:31:43.225Z,81.56
2017-08-08T13:34:12.350Z,80.73
2017-08-08T13:36:40.683Z,81.08
2017-08-08T13:39:09.033Z,81.59
2017-08-08T13:41:37.348Z,80.88
2017-08-08T13:44:05.697Z,79.75
2017-08-08T13:46:34.034Z,80.86
2017-08-08T13:49:02.373Z,81.55
2017-08-08T13:51:30.728Z,79.77
2017-08-08T13:53:59.060Z,80.13
2017-08-08T13:56:27.423Z,79.29
2017-08-08T13:58:55.760Z,81.35
2017-08-08T14:01:24.115Z,82.19
2017-08-08T14:03:52.473Z,80.94
2017-08-08T14:06:20.877Z,80.66
2017-08-08T14:08:49.284Z,80.27
2017-08-08T14:11:17.615Z,79.40
2017-08-08T14:13:47.016Z,78.30
2017-08-08T14:16:15.344Z,76.72
2017-08-08T14:18:43.684Z,75.72
2017-08-08T14:21:12.795Z,76.98
2017-08-08T14:23:41.149Z,75.33
2017-08-08T14:26:09.498Z,77.95
2017-08-08T14:28:37.846Z,76.26
2017-08-08T14:31:06.186Z,76.59
2017-08-08T14:33:34.524Z,77.95
2017-08-08T14:36:02.847Z,80.38
2017-08-08T14:38:31.217Z,82.46
2017-08-08T14:40:59.590Z,80.47
2017-08-08T14:43:27.949Z,82.44
2017-08-08T14:45:56.297Z,81.44
2017-08-08T14:48:24.645Z,79.35
2017-08-08T14:50:53.000Z,79.54
2017-08-08T14:53:21.330Z,77.45
2017-08-08T14:55:50.115Z,77.39
2017-08-08T14:58:18.458Z,74.91
2017-08-08T15:00:46.807Z,76.25
2017-08-08T15:03:15.159Z,78.23
2017-08-08T15:05:43.504Z,74.88
2017-08-08T15:08:12.083Z,72.88
2017-08-08T15:10:40.412Z,72.83
2017-08-08T15:13:08.789Z,72.90
2017-08-08T15:15:37.139Z,73.30
2017-08-08T15:18:05.466Z,72.36
2017-08-08T15:20:33.824Z,73.11
2017-08-08T15:23:02.156Z,72.84
2017-08-08T15:25:30.520Z,70.82
2017-08-08T15:27:58.860Z,72.33
2017-08-08T15:30:27.193Z,70.70
2017-08-08T15:32:56.066Z,69.50
2017-08-08T15:35:24.409Z,69.41
2017-08-08T15:37:52.774Z,70.73
2017-08-08T15:40:21.885Z,70.27
2017-08-08T15:42:50.230Z,70.56
2017-08-08T15:45:18.570Z,71.63
2017-08-08T15:47:46.922Z,69.55
2017-08-08T15:50:15.286Z,69.64
2017-08-08T15:52:44.387Z,70.71
2017-08-08T15:55:13.499Z,71.14
2017-08-08T15:57:41.839Z,72.87
2017-08-08T16:00:10.459Z,69.08
2017-08-08T16:02:38.816Z,69.25
2017-08-08T16:05:07.174Z,68.39
2017-08-08T16:07:35.573Z,68.97
2017-08-08T16:10:04.145Z,69.57
2017-08-08T16:12:32.625Z,69.55
2017-08-08T16:15:00.977Z,69.07
2017-08-08T16:17:29.731Z,68.94
2017-08-08T16:19:58.099Z,68.78
2017-08-08T16:22:26.442Z,69.38
2017-08-08T16:24:54.796Z,69.74
2017-08-08T16:27:23.121Z,69.91
2017-08-08T16:29:51.475Z,69.45
2017-08-08T16:32:19.873Z,71.21
2017-08-08T16:34:48.224Z,72.25
2017-08-08T16:37:16.572Z,72.20
2017-08-08T16:39:44.913Z,70.53
2017-08-08T16:42:13.276Z,71.48
2017-08-08T16:44:41.606Z,70.97
2017-08-08T16:47:09.969Z,69.85
2017-08-08T16:49:38.317Z,72.62
2017-08-08T16:52:06.676Z,70.69
2017-08-08T16:54:35.074Z,71.12
2017-08-08T16:57:03.432Z,69.45
2017-08-08T16:59:31.781Z,69.82
2017-08-08T17:02:00.114Z,69.48
2017-08-08T17:04:28.486Z,68.33
2017-08-08T17:06:56.821Z,69.49
2017-08-08T17:09:25.179Z,70.99
2017-08-08T17:11:53.512Z,69.95
2017-08-08T17:14:22.941Z,68.09
2017-08-08T17:16:51.289Z,68.13
2017-08-08T17:19:19.623Z,66.97
2017-08-08T17:21:47.978Z,66.12
2017-08-08T17:24:16.314Z,65.75
2017-08-08T17:26:45.692Z,66.85
2017-08-08T17:29:14.033Z,67.42
2017-08-08T17:31:42.356Z,66.07
2017-08-08T17:34:10.718Z,66.18
2017-08-08T17:36:39.117Z,66.77
2017-08-08T17:39:07.476Z,67.36
2017-08-08T17:41:35.826Z,67.56
2017-08-08T17:44:04.183Z,67.70
2017-08-08T17:46:33.122Z,68.03
2017-08-08T17:49:01.919Z,67.78
2017-08-08T17:51:37.991Z,68.51
2017-08-08T17:54:07.098Z,67.89
2017-08-08T17:56:36.137Z,68.58
2017-08-08T17:59:05.002Z,69.20
2017-08-08T18:01:33.371Z,68.61
2017-08-08T18:04:01.757Z,68.17
2017-08-08T18:06:30.830Z,68.56
2017-08-08T18:08:59.189Z,69.90
2017-08-08T18:11:27.529Z,69.16
2017-08-08T18:13:55.876Z,73.33
2017-08-08T18:16:24.223Z,73.97
2017-08-08T18:18:52.956Z,74.39
2017-08-08T18:21:21.294Z,74.78
2017-08-08T18:23:49.633Z,74.83
2017-08-08T18:26:18.011Z,75.34
2017-08-08T18:28:46.342Z,75.55
2017-08-08T18:31:14.746Z,76.00
2017-08-08T18:33:43.847Z,76.75
2017-08-08T18:36:12.230Z,77.69
2017-08-08T18:38:40.616Z,77.51
2017-08-08T18:41:08.944Z,78.22
2017-08-08T18:43:37.294Z,78.31
2017-08-08T18:46:06.374Z,78.38
2017-08-08T18:48:34.728Z,78.56
2017-08-08T18:51:03.043Z,79.14
2017-08-08T18:53:31.698Z,79.15
2017-08-08T18:56:01.072Z,79.04
2017-08-08T18:58:29.464Z,79.07
2017-08-08T19:00:59.616Z,79.74
2017-08-08T19:03:27.977Z,79.59
2017-08-08T19:05:57.119Z,79.03
2017-08-08T19:08:25.451Z,80.45
2017-08-08T19:10:54.049Z,80.76
2017-08-08T19:13:22.395Z,81.07
2017-08-08T19:15:50.737Z,80.66
2017-08-08T19:18:19.101Z,81.37
2017-08-08T19:20:47.435Z,81.71
2017-08-08T19:23:15.802Z,82.08
2017-08-08T19:25:44.142Z,81.87
2017-08-08T19:28:12.509Z,81.79
2017-08-08T19:30:40.907Z,81.97
2017-08-08T19:33:09.255Z,81.66
2017-08-08T19:35:38.910Z,81.10
2017-08-08T19:38:07.306Z,81.86
2017-08-08T19:40:35.641Z,82.34
2017-08-08T19:43:04.014Z,82.35
2017-08-08T19:45:32.341Z,82.77
2017-08-08T19:48:00.700Z,82.91
2017-08-08T19:50:29.043Z,83.21
2017-08-08T19:52:58.158Z,83.42
2017-08-08T19:55:26.480Z,83.60
2017-08-08T19:57:54.833Z,83.45
2017-08-08T20:00:23.191Z,83.55
2017-08-08T20:02:51.537Z,83.57
2017-08-08T20:05:19.876Z,83.59
2017-08-08T20:07:48.630Z,83.47
2017-08-08T20:10:18.037Z,83.44
2017-08-08T20:12:46.388Z,83.65
2017-08-08T20:15:14.736Z,83.22
2017-08-08T20:17:43.120Z,82.73
2017-08-08T20:20:11.444Z,83.86
2017-08-08T20:22:40.575Z,84.12
2017-08-08T20:25:08.930Z,83.85
2017-08-08T20:27:37.272Z,83.60
2017-08-08T20:30:05.626Z,84.48
2017-08-08T20:32:33.961Z,84.39
2017-08-08T20:35:03.073Z,84.04
2017-08-08T20:37:32.301Z,84.27
2017-08-08T20:40:00.676Z,84.16
2017-08-08T20:42:29.049Z,83.53
2017-08-08T20:44:57.394Z,83.84
2017-08-08T20:47:26.517Z,84.11
2017-08-08T20:49:54.850Z,84.02
2017-08-08T20:52:23.221Z,84.75
2017-08-08T20:54:51.557Z,84.42
2017-08-08T20:57:19.923Z,83.91
2017-08-08T20:59:48.264Z,84.46
2017-08-08T21:02:16.624Z,84.44
2017-08-08T21:04:44.983Z,83.89
2017-08-08T21:07:13.747Z,83.69
2017-08-08T21:09:42.869Z,83.80
2017-08-08T21:12:11.725Z,83.67
2017-08-08T21:14:41.142Z,83.30
2017-08-08T21:17:10.017Z,83.58
2017-08-08T21:19:39.704Z,83.92
2017-08-08T21:22:08.664Z,84.05
2017-08-08T21:24:37.549Z,83.66
2017-08-08T21:27:07.313Z,84.87
2017-08-08T21:29:36.383Z,84.68
2017-08-08T21:32:05.632Z,85.45
2017-08-08T21:34:35.420Z,84.60
2017-08-08T21:37:03.764Z,84.81
2017-08-08T21:39:32.110Z,84.86
2017-08-08T21:42:00.451Z,84.87
2017-08-08T21:44:28.817Z,84.84
2017-08-08T21:46:57.154Z,85.47
2017-08-08T21:49:25.502Z,85.44
2017-08-08T21:51:53.835Z,85.45
2017-08-08T21:54:22.158Z,84.89
2017-08-08T21:56:50.516Z,85.27
2017-08-08T21:59:18.842Z,85.10
2017-08-08T22:01:47.193Z,85.15
2017-08-08T22:04:15.526Z,85.32
2017-08-08T22:06:44.195Z,85.65
2017-08-08T22:09:12.546Z,85.60
2017-08-08T22:11:40.881Z,85.88
2017-08-08T22:14:09.344Z,85.82
2017-08-08T22:16:37.673Z,85.59
2017-08-08T22:19:06.017Z,85.26
2017-08-08T22:21:34.335Z,85.37
2017-08-08T22:24:02.683Z,85.12
2017-08-08T22:26:31.432Z,83.56
2017-08-08T22:29:00.513Z,82.80
2017-08-08T22:31:28.843Z,83.05
2017-08-08T22:33:57.170Z,83.59
2017-08-08T22:36:25.532Z,82.81
2017-08-08T22:38:53.860Z,83.14
2017-08-08T22:41:22.466Z,82.35
2017-08-08T22:43:50.778Z,81.82
2017-08-08T22:46:19.106Z,82.08
2017-08-08T22:48:47.468Z,82.29
2017-08-08T22:51:16.575Z,81.85
2017-08-08T22:53:44.948Z,82.15
2017-08-08T22:56:13.281Z,82.02
2017-08-08T22:58:42.017Z,82.21
2017-08-08T23:01:10.353Z,81.30
2017-08-08T23:03:38.704Z,80.94
2017-08-08T23:06:07.049Z,80.38
2017-08-08T23:08:36.158Z,80.89
2017-08-08T23:11:04.497Z,80.45
2017-08-08T23:13:32.849Z,80.47
2017-08-08T23:16:01.596Z,80.30
2017-08-08T23:18:29.934Z,80.54
2017-08-08T23:20:58.260Z,81.72
2017-08-08T23:23:26.614Z,80.92
2017-08-08T23:25:55.703Z,81.11
2017-08-08T23:28:24.041Z,81.06
2017-08-08T23:30:52.367Z,81.25
2017-08-08T23:33:21.160Z,80.98
2017-08-08T23:35:49.496Z,81.02
2017-08-08T23:38:17.832Z,80.52
2017-08-08T23:40:46.953Z,80.45
2017-08-08T23:43:15.268Z,80.79
2017-08-08T23:45:43.614Z,81.05
2017-08-08T23:48:11.953Z,80.82
2017-08-08T23:50:40.297Z,80.92
2017-08-08T23:53:08.648Z,80.92
2017-08-08T23:55:36.963Z,80.82
2017-08-08T23:58:05.334Z,80.79
